METAR Data
IDs: Format: Raw Decoded Include TAF

Data at: 0713 UTC 08 May 2021

METAR for:KIAH (Houston/Bush Intl, TX, US)
Text:KIAH 080653Z 00000KT 10SM CLR 17/15 A3004 RMK AO2 SLP172 T01720150
Temperature: 17.2°C ( 63°F)
Dewpoint: 15.0°C ( 59°F) [RH = 87%]
Pressure (altimeter):30.04 inches Hg (1017.4 mb) [Sea level pressure: 1017.2 mb]
Winds:calm
Visibility:10 or more sm (16+ km)
Ceiling:at least 12,000 feet AGL
Clouds:sky clear below 12,000 feet AGL

METAR for:KHOU (Houston/Hobby Arpt, TX, US)
Text:KHOU 080653Z 18006KT 10SM CLR 20/17 A3003 RMK AO2 SLP173 T02000167
Temperature: 20.0°C ( 68°F)
Dewpoint: 16.7°C ( 62°F) [RH = 81%]
Pressure (altimeter):30.03 inches Hg (1017.0 mb) [Sea level pressure: 1017.3 mb]
Winds:from the S (180 degrees) at 7 MPH (6 knots; 3.1 m/s)
Visibility:10 or more sm (16+ km)
Ceiling:at least 12,000 feet AGL
Clouds:sky clear below 12,000 feet AGL

METAR for:KGLS (Galveston/Scholes In, TX, US)
Text:KGLS 080652Z AUTO 17015KT 10SM CLR 24/18 A3005 RMK AO2 SLP175 T02390178
Temperature: 23.9°C ( 75°F)
Dewpoint: 17.8°C ( 64°F) [RH = 69%]
Pressure (altimeter):30.05 inches Hg (1017.7 mb) [Sea level pressure: 1017.5 mb]
Winds:from the S (170 degrees) at 17 MPH (15 knots; 7.7 m/s)
Visibility:10 or more sm (16+ km)
Ceiling:at least 12,000 feet AGL
Clouds:sky clear below 12,000 feet AGL
QC Flag:automated observation with no human augmentation

METAR for:KLVJ (Houston/Pearland Rgn, TX, US)
Text:KLVJ 080653Z AUTO 00000KT 10SM CLR 19/17 A3005 RMK AO2 SLP174 T01940167
Temperature: 19.4°C ( 67°F)
Dewpoint: 16.7°C ( 62°F) [RH = 84%]
Pressure (altimeter):30.05 inches Hg (1017.7 mb) [Sea level pressure: 1017.4 mb]
Winds:calm
Visibility:10 or more sm (16+ km)
Ceiling:at least 12,000 feet AGL
Clouds:sky clear below 12,000 feet AGL
QC Flag:automated observation with no human augmentation

METAR for:KSGR (Houston/Sugar Land R, TX, US)
Text:KSGR 080653Z AUTO 15003KT 10SM CLR 19/17 A3003 RMK AO2 SLP171 T01940167
Temperature: 19.4°C ( 67°F)
Dewpoint: 16.7°C ( 62°F) [RH = 84%]
Pressure (altimeter):30.03 inches Hg (1017.0 mb) [Sea level pressure: 1017.1 mb]
Winds:from the SSE (150 degrees) at 3 MPH (3 knots; 1.5 m/s)
Visibility:10 or more sm (16+ km)
Ceiling:at least 12,000 feet AGL
Clouds:sky clear below 12,000 feet AGL
QC Flag:automated observation with no human augmentation

METAR for:KDWH (Houston/Hooks Mem, TX, US)
Text:KDWH 080653Z AUTO 13003KT 10SM CLR 17/15 A3004 RMK AO2 SLP169 T01720150
Temperature: 17.2°C ( 63°F)
Dewpoint: 15.0°C ( 59°F) [RH = 87%]
Pressure (altimeter):30.04 inches Hg (1017.4 mb) [Sea level pressure: 1016.9 mb]
Winds:from the SE (130 degrees) at 3 MPH (3 knots; 1.5 m/s)
Visibility:10 or more sm (16+ km)
Ceiling:at least 12,000 feet AGL
Clouds:sky clear below 12,000 feet AGL
QC Flag:automated observation with no human augmentation

METAR for:KCLL (College Station/East, TX, US)
Text:KCLL 080653Z AUTO 15004KT 10SM CLR 18/13 A3003 RMK AO2 SLP164 T01780128
Temperature: 17.8°C ( 64°F)
Dewpoint: 12.8°C ( 55°F) [RH = 73%]
Pressure (altimeter):30.03 inches Hg (1017.0 mb) [Sea level pressure: 1016.4 mb]
Winds:from the SSE (150 degrees) at 5 MPH (4 knots; 2.1 m/s)
Visibility:10 or more sm (16+ km)
Ceiling:at least 12,000 feet AGL
Clouds:sky clear below 12,000 feet AGL
QC Flag:automated observation with no human augmentation

METAR for:KUTS (Huntsville Muni, TX, US)
Text:KUTS 080653Z AUTO 17004KT 10SM CLR 20/14 A3003 RMK AO2 SLP164 T02000144
Temperature: 20.0°C ( 68°F)
Dewpoint: 14.4°C ( 58°F) [RH = 70%]
Pressure (altimeter):30.03 inches Hg (1017.0 mb) [Sea level pressure: 1016.4 mb]
Winds:from the S (170 degrees) at 5 MPH (4 knots; 2.1 m/s)
Visibility:10 or more sm (16+ km)
Ceiling:at least 12,000 feet AGL
Clouds:sky clear below 12,000 feet AGL
QC Flag:automated observation with no human augmentation

METAR for:KCXO (Conroe/Executive Arp, TX, US)
Text:KCXO 080653Z AUTO 00000KT 10SM CLR 14/13 A3004 RMK AO2 SLP169 T01440128
Temperature: 14.4°C ( 58°F)
Dewpoint: 12.8°C ( 55°F) [RH = 90%]
Pressure (altimeter):30.04 inches Hg (1017.4 mb) [Sea level pressure: 1016.9 mb]
Winds:calm
Visibility:10 or more sm (16+ km)
Ceiling:at least 12,000 feet AGL
Clouds:sky clear below 12,000 feet AGL
QC Flag:automated observation with no human augmentation

METAR for:KLBX (Angleton/Texas Gulf, TX, US)
Text:KLBX 080653Z AUTO 17004KT 10SM CLR 20/17 A3004 RMK AO2 SLP172 T02000172
Temperature: 20.0°C ( 68°F)
Dewpoint: 17.2°C ( 63°F) [RH = 84%]
Pressure (altimeter):30.04 inches Hg (1017.4 mb) [Sea level pressure: 1017.2 mb]
Winds:from the S (170 degrees) at 5 MPH (4 knots; 2.1 m/s)
Visibility:10 or more sm (16+ km)
Ceiling:at least 12,000 feet AGL
Clouds:sky clear below 12,000 feet AGL
QC Flag:automated observation with no human augmentation

METAR for:KPSX (Palacios Muni, TX, US)
Text:KPSX 080652Z AUTO 15009KT 10SM CLR 23/21 A3002 RMK AO2 SLP166 T02280206
Temperature: 22.8°C ( 73°F)
Dewpoint: 20.6°C ( 69°F) [RH = 87%]
Pressure (altimeter):30.02 inches Hg (1016.7 mb) [Sea level pressure: 1016.6 mb]
Winds:from the SSE (150 degrees) at 10 MPH (9 knots; 4.6 m/s)
Visibility:10 or more sm (16+ km)
Ceiling:at least 12,000 feet AGL
Clouds:sky clear below 12,000 feet AGL
QC Flag:automated observation with no human augmentation